HISTORICAL SENSOR DATA

Sensor Data Report

DB LIVE
CURRENT TIME--:--:--
DEVICE NETWORK Gateway Status
13 ESP · realtime ~1s · history 60s
Weather WS-MOD-01
OFFLINE
Actuator ACT-MOD-01
OFFLINE
Mainboard L3 MB-L3-01
ONLINE
Mainboard L5 MB-L5-01
OFFLINE
Remote AC AC-REMOTE-01
OFFLINE
PZEM L3-01 PWR-L3-01
OFFLINE
PZEM L3-02 PWR-L3-02
OFFLINE
PZEM L3-03 PWR-L3-03
OFFLINE
PZEM L3-04 PWR-L3-04
OFFLINE
PZEM L5-01 PWR-L5-01
OFFLINE
PZEM L5-02 PWR-L5-02
OFFLINE
PZEM L5-03 PWR-L5-03
OFFLINE
PZEM L5-04 PWR-L5-04
OFFLINE
REPORT FILTER

Periode & Sensor

DATABASE HISTORY
RESET
QUICK RANGE Hari ini 7 hari 30 hari
PERIODE08 Aug 2026sampai 06 Sep 2026
TOTAL DATA48,209sensor readings
MINIMUM-0.50sesuai filter
AVERAGE93.77sesuai filter
MAXIMUM32,564.20sesuai filter
REPORT RESULT

Data Sensor

08/08/2026 — 06/09/2026 EXPORT CSV
NOTANGGALWAKTUDEVICECHANNELSENSORVALUEUNIT
2501 06/09/2026 17:08:00 MB-L3-01Mainboard Lantai 3 L3-LUX-04 Illuminance / LUX 4 79.90 lux
2502 06/09/2026 17:08:00 MB-L3-01Mainboard Lantai 3 L3-SHT-03-T SHT20 3 Temperature 29.90 °C
2503 06/09/2026 17:08:00 MB-L3-01Mainboard Lantai 3 L3-AI-01 Analog Input 1 3.12 V
2504 06/09/2026 17:08:00 MB-L3-01Mainboard Lantai 3 L3-SHT-01-RH SHT20 1 Humidity 41.30 %RH
2505 06/09/2026 17:08:00 MB-L3-01Mainboard Lantai 3 L3-AI-04 Analog Input 4 3.12 V
2506 06/09/2026 17:08:00 MB-L3-01Mainboard Lantai 3 L3-LUX-05 Illuminance / LUX 5 391.10 lux
2507 06/09/2026 17:08:00 MB-L3-01Mainboard Lantai 3 L3-SHT-02-T SHT20 2 Temperature 30.00 °C
2508 06/09/2026 17:08:00 MB-L3-01Mainboard Lantai 3 L3-AI-02 Analog Input 2 3.12 V
2509 06/09/2026 17:08:00 MB-L3-01Mainboard Lantai 3 L3-RAD-01 Radiation 1 1.00 W/m²
2510 06/09/2026 17:08:00 MB-L3-01Mainboard Lantai 3 L3-SHT-03-RH SHT20 3 Humidity 41.40 %RH
2511 06/09/2026 17:08:00 MB-L3-01Mainboard Lantai 3 L3-SHT-01-T SHT20 1 Temperature 29.90 °C
2512 06/09/2026 17:08:00 MB-L3-01Mainboard Lantai 3 L3-AI-05 Analog Input 5 3.12 V
2513 06/09/2026 17:08:00 MB-L3-01Mainboard Lantai 3 L3-LUX-03 Illuminance / LUX 3 139.60 lux
2514 06/09/2026 17:08:00 MB-L3-01Mainboard Lantai 3 L3-SHT-02-RH SHT20 2 Humidity 41.10 %RH
2515 06/09/2026 17:08:00 MB-L3-01Mainboard Lantai 3 L3-LUX-01 Illuminance / LUX 1 85.50 lux
2516 06/09/2026 17:07:00 MB-L3-01Mainboard Lantai 3 L3-RAD-02 Radiation 2 1.00 W/m²
2517 06/09/2026 17:07:00 MB-L3-01Mainboard Lantai 3 L3-LUX-04 Illuminance / LUX 4 82.30 lux
2518 06/09/2026 17:07:00 MB-L3-01Mainboard Lantai 3 L3-SHT-03-T SHT20 3 Temperature 29.90 °C
2519 06/09/2026 17:07:00 MB-L3-01Mainboard Lantai 3 L3-AI-01 Analog Input 1 3.12 V
2520 06/09/2026 17:07:00 MB-L3-01Mainboard Lantai 3 L3-SHT-01-RH SHT20 1 Humidity 41.10 %RH
2521 06/09/2026 17:07:00 MB-L3-01Mainboard Lantai 3 L3-AI-04 Analog Input 4 3.12 V
2522 06/09/2026 17:07:00 MB-L3-01Mainboard Lantai 3 L3-LUX-05 Illuminance / LUX 5 403.00 lux
2523 06/09/2026 17:07:00 MB-L3-01Mainboard Lantai 3 L3-SHT-02-T SHT20 2 Temperature 30.00 °C
2524 06/09/2026 17:07:00 MB-L3-01Mainboard Lantai 3 L3-AI-02 Analog Input 2 3.12 V
2525 06/09/2026 17:07:00 MB-L3-01Mainboard Lantai 3 L3-RAD-01 Radiation 1 1.00 W/m²
2526 06/09/2026 17:07:00 MB-L3-01Mainboard Lantai 3 L3-SHT-03-RH SHT20 3 Humidity 41.40 %RH
2527 06/09/2026 17:07:00 MB-L3-01Mainboard Lantai 3 L3-SHT-01-T SHT20 1 Temperature 30.00 °C
2528 06/09/2026 17:07:00 MB-L3-01Mainboard Lantai 3 L3-AI-05 Analog Input 5 3.12 V
2529 06/09/2026 17:07:00 MB-L3-01Mainboard Lantai 3 L3-LUX-03 Illuminance / LUX 3 143.50 lux
2530 06/09/2026 17:07:00 MB-L3-01Mainboard Lantai 3 L3-SHT-02-RH SHT20 2 Humidity 41.10 %RH
2531 06/09/2026 17:07:00 MB-L3-01Mainboard Lantai 3 L3-LUX-01 Illuminance / LUX 1 89.20 lux
2532 06/09/2026 17:07:00 MB-L3-01Mainboard Lantai 3 L3-AI-03 Analog Input 3 3.12 V
2533 06/09/2026 17:07:00 MB-L3-01Mainboard Lantai 3 L3-LUX-02 Illuminance / LUX 2 128.50 lux
2534 06/09/2026 17:07:00 MB-L3-01Mainboard Lantai 3 L3-AI-06 Analog Input 6 3.12 V
2535 06/09/2026 17:07:00 MB-L3-01Mainboard Lantai 3 L3-LUX-06 Illuminance / LUX 6 299.50 lux
2536 06/09/2026 17:06:00 MB-L3-01Mainboard Lantai 3 L3-AI-01 Analog Input 1 3.12 V
2537 06/09/2026 17:06:00 MB-L3-01Mainboard Lantai 3 L3-SHT-01-RH SHT20 1 Humidity 41.10 %RH
2538 06/09/2026 17:06:00 MB-L3-01Mainboard Lantai 3 L3-AI-04 Analog Input 4 3.12 V
2539 06/09/2026 17:06:00 MB-L3-01Mainboard Lantai 3 L3-LUX-05 Illuminance / LUX 5 416.00 lux
2540 06/09/2026 17:06:00 MB-L3-01Mainboard Lantai 3 L3-SHT-02-T SHT20 2 Temperature 30.10 °C
2541 06/09/2026 17:06:00 MB-L3-01Mainboard Lantai 3 L3-AI-02 Analog Input 2 3.12 V
2542 06/09/2026 17:06:00 MB-L3-01Mainboard Lantai 3 L3-RAD-01 Radiation 1 1.00 W/m²
2543 06/09/2026 17:06:00 MB-L3-01Mainboard Lantai 3 L3-SHT-03-RH SHT20 3 Humidity 41.20 %RH
2544 06/09/2026 17:06:00 MB-L3-01Mainboard Lantai 3 L3-SHT-01-T SHT20 1 Temperature 30.00 °C
2545 06/09/2026 17:06:00 MB-L3-01Mainboard Lantai 3 L3-AI-05 Analog Input 5 3.12 V
2546 06/09/2026 17:06:00 MB-L3-01Mainboard Lantai 3 L3-LUX-03 Illuminance / LUX 3 148.10 lux
2547 06/09/2026 17:06:00 MB-L3-01Mainboard Lantai 3 L3-SHT-02-RH SHT20 2 Humidity 40.90 %RH
2548 06/09/2026 17:06:00 MB-L3-01Mainboard Lantai 3 L3-LUX-01 Illuminance / LUX 1 93.50 lux
2549 06/09/2026 17:06:00 MB-L3-01Mainboard Lantai 3 L3-AI-03 Analog Input 3 3.12 V
2550 06/09/2026 17:06:00 MB-L3-01Mainboard Lantai 3 L3-LUX-02 Illuminance / LUX 2 134.30 lux
2551 06/09/2026 17:06:00 MB-L3-01Mainboard Lantai 3 L3-AI-06 Analog Input 6 3.12 V
2552 06/09/2026 17:06:00 MB-L3-01Mainboard Lantai 3 L3-LUX-06 Illuminance / LUX 6 307.00 lux
2553 06/09/2026 17:06:00 MB-L3-01Mainboard Lantai 3 L3-RAD-02 Radiation 2 1.00 W/m²
2554 06/09/2026 17:06:00 MB-L3-01Mainboard Lantai 3 L3-LUX-04 Illuminance / LUX 4 83.40 lux
2555 06/09/2026 17:06:00 MB-L3-01Mainboard Lantai 3 L3-SHT-03-T SHT20 3 Temperature 30.00 °C
2556 06/09/2026 17:05:00 MB-L3-01Mainboard Lantai 3 L3-SHT-02-T SHT20 2 Temperature 30.20 °C
2557 06/09/2026 17:05:00 MB-L3-01Mainboard Lantai 3 L3-AI-02 Analog Input 2 3.12 V
2558 06/09/2026 17:05:00 MB-L3-01Mainboard Lantai 3 L3-RAD-01 Radiation 1 1.00 W/m²
2559 06/09/2026 17:05:00 MB-L3-01Mainboard Lantai 3 L3-SHT-03-RH SHT20 3 Humidity 41.20 %RH
2560 06/09/2026 17:05:00 MB-L3-01Mainboard Lantai 3 L3-SHT-01-T SHT20 1 Temperature 29.90 °C
2561 06/09/2026 17:05:00 MB-L3-01Mainboard Lantai 3 L3-AI-05 Analog Input 5 3.12 V
2562 06/09/2026 17:05:00 MB-L3-01Mainboard Lantai 3 L3-LUX-03 Illuminance / LUX 3 151.80 lux
2563 06/09/2026 17:05:00 MB-L3-01Mainboard Lantai 3 L3-SHT-02-RH SHT20 2 Humidity 40.80 %RH
2564 06/09/2026 17:05:00 MB-L3-01Mainboard Lantai 3 L3-LUX-01 Illuminance / LUX 1 97.90 lux
2565 06/09/2026 17:05:00 MB-L3-01Mainboard Lantai 3 L3-AI-03 Analog Input 3 3.12 V
2566 06/09/2026 17:05:00 MB-L3-01Mainboard Lantai 3 L3-LUX-02 Illuminance / LUX 2 139.50 lux
2567 06/09/2026 17:05:00 MB-L3-01Mainboard Lantai 3 L3-AI-06 Analog Input 6 3.12 V
2568 06/09/2026 17:05:00 MB-L3-01Mainboard Lantai 3 L3-LUX-06 Illuminance / LUX 6 320.20 lux
2569 06/09/2026 17:05:00 MB-L3-01Mainboard Lantai 3 L3-RAD-02 Radiation 2 1.00 W/m²
2570 06/09/2026 17:05:00 MB-L3-01Mainboard Lantai 3 L3-LUX-04 Illuminance / LUX 4 85.60 lux
2571 06/09/2026 17:05:00 MB-L3-01Mainboard Lantai 3 L3-SHT-03-T SHT20 3 Temperature 30.00 °C
2572 06/09/2026 17:05:00 MB-L3-01Mainboard Lantai 3 L3-AI-01 Analog Input 1 3.12 V
2573 06/09/2026 17:05:00 MB-L3-01Mainboard Lantai 3 L3-SHT-01-RH SHT20 1 Humidity 40.90 %RH
2574 06/09/2026 17:05:00 MB-L3-01Mainboard Lantai 3 L3-AI-04 Analog Input 4 3.12 V
2575 06/09/2026 17:05:00 MB-L3-01Mainboard Lantai 3 L3-LUX-05 Illuminance / LUX 5 426.00 lux
2576 06/09/2026 17:04:00 MB-L3-01Mainboard Lantai 3 L3-LUX-03 Illuminance / LUX 3 155.60 lux
2577 06/09/2026 17:04:00 MB-L3-01Mainboard Lantai 3 L3-SHT-02-RH SHT20 2 Humidity 40.70 %RH
2578 06/09/2026 17:04:00 MB-L3-01Mainboard Lantai 3 L3-LUX-01 Illuminance / LUX 1 101.30 lux
2579 06/09/2026 17:04:00 MB-L3-01Mainboard Lantai 3 L3-AI-03 Analog Input 3 3.12 V
2580 06/09/2026 17:04:00 MB-L3-01Mainboard Lantai 3 L3-LUX-02 Illuminance / LUX 2 143.90 lux
2581 06/09/2026 17:04:00 MB-L3-01Mainboard Lantai 3 L3-AI-06 Analog Input 6 3.12 V
2582 06/09/2026 17:04:00 MB-L3-01Mainboard Lantai 3 L3-LUX-06 Illuminance / LUX 6 326.70 lux
2583 06/09/2026 17:04:00 MB-L3-01Mainboard Lantai 3 L3-RAD-02 Radiation 2 1.00 W/m²
2584 06/09/2026 17:04:00 MB-L3-01Mainboard Lantai 3 L3-LUX-04 Illuminance / LUX 4 87.80 lux
2585 06/09/2026 17:04:00 MB-L3-01Mainboard Lantai 3 L3-SHT-03-T SHT20 3 Temperature 30.10 °C
2586 06/09/2026 17:04:00 MB-L3-01Mainboard Lantai 3 L3-AI-01 Analog Input 1 3.12 V
2587 06/09/2026 17:04:00 MB-L3-01Mainboard Lantai 3 L3-SHT-01-RH SHT20 1 Humidity 41.10 %RH
2588 06/09/2026 17:04:00 MB-L3-01Mainboard Lantai 3 L3-AI-04 Analog Input 4 3.12 V
2589 06/09/2026 17:04:00 MB-L3-01Mainboard Lantai 3 L3-LUX-05 Illuminance / LUX 5 433.40 lux
2590 06/09/2026 17:04:00 MB-L3-01Mainboard Lantai 3 L3-SHT-02-T SHT20 2 Temperature 30.20 °C
2591 06/09/2026 17:04:00 MB-L3-01Mainboard Lantai 3 L3-AI-02 Analog Input 2 3.12 V
2592 06/09/2026 17:04:00 MB-L3-01Mainboard Lantai 3 L3-RAD-01 Radiation 1 1.00 W/m²
2593 06/09/2026 17:04:00 MB-L3-01Mainboard Lantai 3 L3-SHT-03-RH SHT20 3 Humidity 41.20 %RH
2594 06/09/2026 17:04:00 MB-L3-01Mainboard Lantai 3 L3-SHT-01-T SHT20 1 Temperature 30.00 °C
2595 06/09/2026 17:04:00 MB-L3-01Mainboard Lantai 3 L3-AI-05 Analog Input 5 3.12 V
2596 06/09/2026 17:03:00 MB-L3-01Mainboard Lantai 3 L3-AI-03 Analog Input 3 3.12 V
2597 06/09/2026 17:03:00 MB-L3-01Mainboard Lantai 3 L3-LUX-02 Illuminance / LUX 2 147.70 lux
2598 06/09/2026 17:03:00 MB-L3-01Mainboard Lantai 3 L3-AI-06 Analog Input 6 3.12 V
2599 06/09/2026 17:03:00 MB-L3-01Mainboard Lantai 3 L3-LUX-06 Illuminance / LUX 6 334.90 lux
2600 06/09/2026 17:03:00 MB-L3-01Mainboard Lantai 3 L3-RAD-02 Radiation 2 1.00 W/m²
Menampilkan maksimal 100 data per halaman